createdAt,value
2022-09-17T00:00:22.125Z,1.98
2022-09-17T00:02:25.533Z,2.65
2022-09-17T00:04:27.973Z,2.33
2022-09-17T00:06:30.474Z,2.05
2022-09-17T00:08:33.578Z,1.75
2022-09-17T00:10:39.878Z,2.38
2022-09-17T00:12:41.623Z,1.77
2022-09-17T00:14:43.093Z,2.25
2022-09-17T00:16:46.766Z,2.10
2022-09-17T00:18:48.202Z,2.67
2022-09-17T00:20:49.726Z,2.60
2022-09-17T00:22:51.163Z,2.00
2022-09-17T00:24:52.691Z,2.25
2022-09-17T00:26:54.210Z,1.90
2022-09-17T00:28:57.295Z,2.22
2022-09-17T00:30:58.852Z,2.42
2022-09-17T00:33:00.351Z,2.38
2022-09-17T00:35:01.823Z,3.08
2022-09-17T00:37:03.259Z,2.38
2022-09-17T00:39:06.881Z,2.90
2022-09-17T00:41:08.632Z,2.28
2022-09-17T00:43:12.344Z,2.40
2022-09-17T00:45:14.385Z,2.20
2022-09-17T00:47:20.963Z,1.77
2022-09-17T00:49:29.087Z,3.97
2022-09-17T00:51:45.523Z,2.03
2022-09-17T00:53:47.286Z,1.67
2022-09-17T00:55:56.054Z,2.10
2022-09-17T00:58:01.362Z,2.20
2022-09-17T01:00:07.106Z,2.35
2022-09-17T01:02:09.031Z,3.17
2022-09-17T01:04:17.909Z,2.00
2022-09-17T01:08:34.663Z,1.90
2022-09-17T01:11:04.652Z,2.53
2022-09-17T01:13:15.278Z,2.08
2022-09-17T01:15:55.017Z,3.38
2022-09-17T01:18:15.406Z,2.00
2022-09-17T01:20:31.765Z,2.88
2022-09-17T01:22:58.159Z,2.15
2022-09-17T01:25:17.623Z,2.75
2022-09-17T01:27:56.560Z,2.20
2022-09-17T01:30:16.262Z,2.42
2022-09-17T01:32:21.456Z,2.42
2022-09-17T01:34:37.481Z,2.38
2022-09-17T01:36:55.920Z,1.90
2022-09-17T01:39:03.482Z,2.00
2022-09-17T01:41:24.087Z,1.48
2022-09-17T01:43:34.390Z,2.58
2022-09-17T01:45:44.881Z,2.22
2022-09-17T01:47:58.495Z,2.40
2022-09-17T01:50:17.571Z,2.13
2022-09-17T01:52:20.727Z,1.85
2022-09-17T01:54:32.432Z,2.58
2022-09-17T01:56:39.887Z,2.00
2022-09-17T01:58:48.289Z,2.47
2022-09-17T02:00:59.689Z,2.50
2022-09-17T02:03:04.823Z,2.25
2022-09-17T02:05:16.115Z,2.13
2022-09-17T02:07:22.923Z,2.72
2022-09-17T02:09:30.017Z,2.33
2022-09-17T02:11:37.142Z,2.55
2022-09-17T02:13:48.282Z,2.88
2022-09-17T02:16:02.361Z,2.15
2022-09-17T02:18:18.171Z,2.30
2022-09-17T02:20:26.963Z,2.42
2022-09-17T02:22:52.525Z,2.42
2022-09-17T02:25:14.844Z,2.70
2022-09-17T02:27:34.799Z,2.72
2022-09-17T02:29:39.922Z,2.60
2022-09-17T02:31:42.486Z,1.75
2022-09-17T02:33:50.240Z,2.28
2022-09-17T02:35:52.216Z,2.05
2022-09-17T02:37:53.760Z,2.08
2022-09-17T02:39:55.946Z,2.17
2022-09-17T02:42:23.271Z,2.47
2022-09-17T02:44:55.745Z,2.05
2022-09-17T02:47:29.860Z,2.03
2022-09-17T02:49:46.144Z,2.05
2022-09-17T02:51:53.767Z,2.08
2022-09-17T02:54:16.356Z,2.20
2022-09-17T02:56:34.046Z,2.03
2022-09-17T02:58:45.747Z,2.08
2022-09-17T03:00:48.030Z,2.17
2022-09-17T03:03:04.201Z,1.65
2022-09-17T03:05:08.325Z,2.47
2022-09-17T03:07:12.032Z,2.08
2022-09-17T03:09:16.410Z,1.67
2022-09-17T03:11:18.174Z,2.42
2022-09-17T03:13:19.999Z,2.47
2022-09-17T03:15:21.683Z,1.98
2022-09-17T03:17:23.222Z,2.63
2022-09-17T03:19:24.730Z,1.83
2022-09-17T03:21:26.551Z,1.70
2022-09-17T03:23:28.176Z,1.52
2022-09-17T03:25:29.596Z,1.95
2022-09-17T03:27:31.044Z,2.28
2022-09-17T03:29:33.438Z,2.20
2022-09-17T03:31:35.045Z,2.88
2022-09-17T03:33:36.662Z,1.77
2022-09-17T03:35:38.201Z,1.90
2022-09-17T03:37:39.669Z,2.15
2022-09-17T03:39:41.129Z,2.80
2022-09-17T03:41:42.565Z,2.28
2022-09-17T03:43:44.008Z,2.85
2022-09-17T03:45:45.439Z,1.90
2022-09-17T03:47:46.849Z,2.47
2022-09-17T03:49:48.349Z,2.25
2022-09-17T03:51:50.045Z,1.67
2022-09-17T03:53:51.488Z,2.10
2022-09-17T03:55:53.222Z,2.20
2022-09-17T03:57:56.057Z,1.52
2022-09-17T03:59:57.530Z,1.75
2022-09-17T04:01:59.113Z,1.55
2022-09-17T04:04:00.781Z,2.00
2022-09-17T04:06:02.413Z,2.25
2022-09-17T04:08:03.849Z,2.88
2022-09-17T04:10:05.845Z,2.15
2022-09-17T04:12:07.310Z,2.72
2022-09-17T04:14:08.725Z,3.10
2022-09-17T04:16:10.217Z,1.90
2022-09-17T04:18:12.323Z,1.83
2022-09-17T04:20:13.799Z,3.05
2022-09-17T04:22:15.251Z,1.95
2022-09-17T04:24:16.681Z,2.50
2022-09-17T04:26:18.140Z,1.90
2022-09-17T04:28:19.643Z,2.45
2022-09-17T04:30:21.206Z,2.25
2022-09-17T04:32:22.664Z,2.70
2022-09-17T04:34:24.108Z,1.85
2022-09-17T04:36:25.597Z,2.88
2022-09-17T04:38:27.084Z,2.25
2022-09-17T04:40:29.561Z,2.35
2022-09-17T04:42:31.032Z,1.95
2022-09-17T04:44:32.519Z,2.45
2022-09-17T04:46:34.140Z,2.67
2022-09-17T04:48:35.614Z,2.10
2022-09-17T04:50:37.054Z,2.42
2022-09-17T04:52:43.143Z,1.83
2022-09-17T04:54:44.576Z,2.55
2022-09-17T04:56:46.046Z,1.80
2022-09-17T04:58:47.541Z,2.80
2022-09-17T05:00:48.991Z,2.60
2022-09-17T05:02:53.585Z,2.00
2022-09-17T05:04:56.852Z,2.03
2022-09-17T05:06:58.377Z,2.17
2022-09-17T05:09:00.127Z,2.45
2022-09-17T05:11:01.930Z,2.10
2022-09-17T05:13:03.472Z,2.65
2022-09-17T05:15:05.488Z,2.83
2022-09-17T05:17:06.979Z,2.28
2022-09-17T05:19:08.447Z,1.83
2022-09-17T05:21:09.876Z,2.28
2022-09-17T05:23:11.362Z,2.33
2022-09-17T05:25:14.953Z,2.53
2022-09-17T05:27:16.506Z,2.25
2022-09-17T05:29:17.925Z,2.05
2022-09-17T05:31:19.388Z,3.08
2022-09-17T05:33:21.179Z,2.60
2022-09-17T05:35:22.611Z,2.35
2022-09-17T05:37:24.068Z,2.17
2022-09-17T05:39:25.521Z,1.90
2022-09-17T05:41:26.982Z,2.15
2022-09-17T05:43:28.435Z,2.38
2022-09-17T05:45:30.533Z,2.00
2022-09-17T05:47:32.013Z,2.40
2022-09-17T05:49:33.458Z,1.90
2022-09-17T05:51:34.898Z,2.72
2022-09-17T05:53:36.389Z,2.58
2022-09-17T05:55:38.178Z,1.88
2022-09-17T05:57:39.643Z,1.83
2022-09-17T05:59:41.069Z,1.85
2022-09-17T06:01:42.731Z,1.70
2022-09-17T06:03:44.293Z,2.60
2022-09-17T06:05:58.328Z,1.90
2022-09-17T06:07:59.916Z,2.03
2022-09-17T06:10:01.339Z,2.42
2022-09-17T06:12:03.864Z,1.65
2022-09-17T06:14:05.405Z,2.25
2022-09-17T06:16:06.964Z,2.63
2022-09-17T06:18:08.509Z,2.28
2022-09-17T06:20:10.204Z,1.83
2022-09-17T06:22:11.762Z,2.78
2022-09-17T06:24:13.373Z,1.92
2022-09-17T06:26:15.314Z,1.60
2022-09-17T06:28:16.760Z,1.80
2022-09-17T06:30:18.402Z,2.10
2022-09-17T06:32:19.849Z,2.22
2022-09-17T06:34:21.280Z,2.17
2022-09-17T06:36:22.778Z,2.58
2022-09-17T06:38:24.290Z,2.15
2022-09-17T06:40:26.178Z,1.90
2022-09-17T06:42:28.654Z,2.38
2022-09-17T06:44:30.104Z,1.42
2022-09-17T06:46:31.644Z,2.67
2022-09-17T06:48:34.785Z,2.17
2022-09-17T06:50:39.409Z,2.75
2022-09-17T06:52:51.326Z,2.20
2022-09-17T06:54:52.789Z,1.67
2022-09-17T06:56:54.207Z,1.67
2022-09-17T06:58:55.650Z,2.55
2022-09-17T07:01:01.360Z,2.22
2022-09-17T07:03:03.077Z,2.50
2022-09-17T07:05:05.430Z,2.83
2022-09-17T07:07:06.894Z,2.30
2022-09-17T07:09:11.108Z,2.25
2022-09-17T07:11:13.544Z,2.28
2022-09-17T07:13:15.310Z,2.35
2022-09-17T07:15:17.093Z,2.33
2022-09-17T07:17:18.556Z,2.42
2022-09-17T07:19:20.015Z,2.67
2022-09-17T07:21:21.459Z,2.05
2022-09-17T07:23:28.256Z,2.15
2022-09-17T07:25:29.717Z,1.90
2022-09-17T07:27:32.488Z,2.05
2022-09-17T07:29:33.932Z,2.05
2022-09-17T07:31:35.409Z,2.50
2022-09-17T07:33:37.809Z,2.33
2022-09-17T07:35:39.234Z,2.10
2022-09-17T07:37:40.668Z,2.22
2022-09-17T07:39:42.751Z,2.05
2022-09-17T07:41:44.169Z,2.30
2022-09-17T07:43:45.722Z,1.83
2022-09-17T07:45:47.164Z,1.90
2022-09-17T07:47:48.591Z,2.00
2022-09-17T07:49:50.038Z,1.77
2022-09-17T07:51:51.731Z,2.33
2022-09-17T07:53:58.167Z,2.10
2022-09-17T07:56:00.737Z,2.17
2022-09-17T07:58:02.152Z,1.90
2022-09-17T08:00:04.388Z,2.50
2022-09-17T08:02:12.323Z,1.65
2022-09-17T08:04:14.394Z,1.92
2022-09-17T08:06:18.408Z,1.60
2022-09-17T08:08:21.390Z,2.10
2022-09-17T08:10:23.451Z,2.45
2022-09-17T08:12:24.872Z,1.83
2022-09-17T08:14:29.677Z,1.65
2022-09-17T08:16:31.644Z,2.10
2022-09-17T08:18:34.362Z,2.20
2022-09-17T08:20:35.813Z,2.42
2022-09-17T08:22:37.461Z,1.85
2022-09-17T08:24:38.916Z,1.98
2022-09-17T08:26:41.185Z,1.67
2022-09-17T08:28:47.809Z,1.88
2022-09-17T08:30:50.478Z,1.90
2022-09-17T08:32:56.005Z,2.67
2022-09-17T08:34:58.395Z,2.28
2022-09-17T08:36:59.919Z,1.67
2022-09-17T08:39:01.624Z,2.17
2022-09-17T08:41:03.142Z,2.30
2022-09-17T08:43:04.718Z,1.85
2022-09-17T08:45:14.159Z,1.33
2022-09-17T08:47:48.158Z,1.77
2022-09-17T08:49:56.839Z,1.13
2022-09-17T08:54:42.503Z,1.52
2022-09-17T08:56:47.993Z,1.30
2022-09-17T08:59:16.456Z,1.52
2022-09-17T09:01:43.451Z,1.13
2022-09-17T09:04:03.067Z,2.00
2022-09-17T09:06:10.474Z,1.73
2022-09-17T09:08:24.610Z,1.85
2022-09-17T09:10:31.177Z,1.67
2022-09-17T09:12:36.704Z,1.67
2022-09-17T09:14:56.008Z,1.90
2022-09-17T09:16:57.924Z,1.40
2022-09-17T09:19:34.031Z,1.20
2022-09-17T09:21:44.324Z,1.25
2022-09-17T09:23:48.836Z,1.58
2022-09-17T09:26:21.136Z,1.50
2022-09-17T09:29:05.875Z,0.50
2022-09-17T09:31:55.071Z,0.50
2022-09-17T09:33:57.701Z,0.52
2022-09-17T09:35:59.745Z,0.60
2022-09-17T09:38:31.449Z,0.60
2022-09-17T09:40:48.718Z,0.90
2022-09-17T09:42:53.592Z,1.05
2022-09-17T09:45:04.799Z,1.50
2022-09-17T09:47:20.608Z,1.92
2022-09-17T09:49:24.958Z,1.40
2022-09-17T09:52:23.573Z,1.25
2022-09-17T09:54:49.730Z,1.30
2022-09-17T09:56:59.009Z,1.42
2022-09-17T09:59:01.319Z,1.77
2022-09-17T10:01:15.630Z,1.70
2022-09-17T10:03:21.166Z,1.15
2022-09-17T10:05:23.949Z,0.95
2022-09-17T10:07:25.394Z,1.63
2022-09-17T10:09:27.822Z,1.52
2022-09-17T10:11:33.111Z,1.48
2022-09-17T10:13:36.769Z,1.20
2022-09-17T10:15:38.304Z,1.20
2022-09-17T10:17:39.877Z,1.45
2022-09-17T10:19:42.541Z,1.52
2022-09-17T10:21:44.443Z,1.65
2022-09-17T10:23:46.480Z,1.27
2022-09-17T10:25:49.088Z,0.82
2022-09-17T10:27:50.832Z,1.20
2022-09-17T10:30:17.173Z,0.80
2022-09-17T10:32:21.019Z,0.82
2022-09-17T10:34:22.423Z,1.00
2022-09-17T10:36:44.130Z,0.90
2022-09-17T10:38:46.488Z,0.80
2022-09-17T10:40:48.042Z,1.30
2022-09-17T10:42:51.219Z,1.40
2022-09-17T10:44:57.310Z,1.00
2022-09-17T10:47:05.520Z,1.02
2022-09-17T10:49:22.348Z,1.02
2022-09-17T10:51:25.388Z,2.30
2022-09-17T10:53:27.384Z,1.38
2022-09-17T10:55:37.211Z,0.70
2022-09-17T10:57:50.960Z,0.85
2022-09-17T11:00:04.658Z,1.52
2022-09-17T11:02:24.387Z,0.88
2022-09-17T11:04:32.726Z,1.05
2022-09-17T11:06:52.155Z,1.08
2022-09-17T11:09:20.825Z,0.98
2022-09-17T11:11:58.002Z,1.23
2022-09-17T11:14:08.773Z,1.20
2022-09-17T11:16:37.553Z,0.90
2022-09-17T11:19:22.865Z,1.17
2022-09-17T11:21:56.731Z,0.82
2022-09-17T11:24:07.450Z,0.70
2022-09-17T11:26:32.105Z,1.25
2022-09-17T11:28:33.539Z,0.88
2022-09-17T11:31:00.717Z,0.82
2022-09-17T11:33:21.080Z,1.45
2022-09-17T11:36:04.386Z,1.40
2022-09-17T11:38:20.200Z,0.80
2022-09-17T11:40:30.212Z,1.23
2022-09-17T11:42:38.856Z,1.33
2022-09-17T11:44:51.733Z,0.80
2022-09-17T11:47:05.665Z,0.93
2022-09-17T11:49:30.195Z,1.10
2022-09-17T11:51:36.973Z,0.90
2022-09-17T11:53:47.537Z,1.10
2022-09-17T11:55:55.724Z,0.85
2022-09-17T11:58:02.827Z,1.08
2022-09-17T12:00:25.168Z,1.15
2022-09-17T12:02:32.696Z,1.05
2022-09-17T12:04:49.940Z,1.27
2022-09-17T12:07:02.661Z,0.88
2022-09-17T12:09:15.257Z,1.10
2022-09-17T12:11:26.705Z,1.35
2022-09-17T12:13:34.069Z,1.25
2022-09-17T12:15:39.210Z,1.33
2022-09-17T12:18:03.859Z,1.08
2022-09-17T12:20:34.363Z,0.80
2022-09-17T12:22:41.342Z,1.55
2022-09-17T12:24:43.186Z,1.67
2022-09-17T12:26:49.997Z,1.58
2022-09-17T12:28:54.599Z,1.00
2022-09-17T12:31:05.864Z,1.63
2022-09-17T12:33:19.137Z,1.30
2022-09-17T12:36:03.401Z,1.95
2022-09-17T12:38:51.299Z,1.50
2022-09-17T12:41:09.256Z,1.35
2022-09-17T12:43:33.759Z,1.45
2022-09-17T12:46:00.310Z,1.98
2022-09-17T12:48:08.359Z,1.42
2022-09-17T12:50:39.448Z,1.55
2022-09-17T12:53:07.155Z,1.65
2022-09-17T12:55:24.784Z,1.50
2022-09-17T12:57:40.994Z,1.85
2022-09-17T12:59:52.717Z,1.90
2022-09-17T13:02:12.813Z,1.95
2022-09-17T13:04:43.651Z,1.73
2022-09-17T13:07:17.876Z,2.28
2022-09-17T13:10:03.759Z,1.75
2022-09-17T13:12:22.154Z,2.15
2022-09-17T13:14:56.483Z,2.05
2022-09-17T13:17:16.600Z,2.58
2022-09-17T13:19:33.791Z,1.90
2022-09-17T13:21:58.662Z,2.40
2022-09-17T13:24:00.793Z,2.53
2022-09-17T13:26:05.712Z,2.28
2022-09-17T13:28:11.646Z,2.00
2022-09-17T13:30:18.300Z,3.53
2022-09-17T13:32:35.007Z,1.95
2022-09-17T13:34:36.546Z,2.80
2022-09-17T13:36:51.316Z,1.77
2022-09-17T13:38:52.897Z,1.98
2022-09-17T13:41:18.926Z,2.13
2022-09-17T13:43:26.561Z,2.13
2022-09-17T13:45:28.375Z,2.35
2022-09-17T13:47:38.922Z,1.65
2022-09-17T13:49:50.711Z,1.83
2022-09-17T13:51:53.463Z,1.95
2022-09-17T13:53:56.596Z,1.92
2022-09-17T13:56:01.034Z,1.80
2022-09-17T13:58:23.483Z,1.77
2022-09-17T14:01:04.053Z,1.50
2022-09-17T14:03:34.865Z,2.17
2022-09-17T14:05:36.839Z,1.35
2022-09-17T14:07:47.401Z,1.52
2022-09-17T14:09:56.270Z,1.48
2022-09-17T14:11:57.721Z,1.52
2022-09-17T14:14:04.971Z,1.30
2022-09-17T14:16:25.351Z,1.73
2022-09-17T14:18:26.813Z,1.85
2022-09-17T14:20:29.935Z,1.80
2022-09-17T14:22:31.388Z,1.08
2022-09-17T14:24:58.759Z,1.10
2022-09-17T14:27:14.398Z,1.02
2022-09-17T14:30:04.309Z,1.55
2022-09-17T14:32:07.253Z,1.35
2022-09-17T14:34:19.918Z,1.58
2022-09-17T14:36:22.792Z,1.33
2022-09-17T14:38:47.191Z,1.63
2022-09-17T14:41:09.356Z,1.38
2022-09-17T14:43:19.711Z,1.60
2022-09-17T14:45:26.188Z,1.38
2022-09-17T14:47:27.679Z,1.92
2022-09-17T14:49:36.583Z,1.48
2022-09-17T14:51:40.228Z,1.67
2022-09-17T14:53:41.675Z,1.58
2022-09-17T14:55:44.746Z,2.13
2022-09-17T14:57:51.673Z,1.95
2022-09-17T14:59:56.022Z,1.83
2022-09-17T15:01:57.852Z,1.67
2022-09-17T15:04:14.352Z,1.80
2022-09-17T15:06:22.829Z,2.10
2022-09-17T15:08:28.877Z,1.60
2022-09-17T15:10:30.993Z,1.52
2022-09-17T15:12:32.487Z,3.22
2022-09-17T15:14:38.017Z,1.52
2022-09-17T15:16:46.551Z,1.75
2022-09-17T15:18:51.020Z,1.48
2022-09-17T15:20:54.791Z,2.13
2022-09-17T15:23:15.292Z,2.75
2022-09-17T15:25:23.759Z,1.63
2022-09-17T15:27:36.320Z,1.80
2022-09-17T15:29:43.031Z,2.05
2022-09-17T15:31:44.551Z,1.10
2022-09-17T15:33:47.493Z,1.58
2022-09-17T15:36:01.128Z,1.38
2022-09-17T15:38:22.896Z,1.42
2022-09-17T15:40:27.958Z,1.73
2022-09-17T15:42:30.966Z,1.90
2022-09-17T15:44:32.835Z,1.48
2022-09-17T15:46:34.364Z,1.50
2022-09-17T15:48:38.525Z,1.65
2022-09-17T15:50:54.614Z,1.60
2022-09-17T15:53:05.359Z,2.05
2022-09-17T15:55:31.046Z,1.25
2022-09-17T15:57:33.081Z,1.52
2022-09-17T15:59:35.252Z,1.92
2022-09-17T16:01:36.770Z,1.25
2022-09-17T16:03:38.389Z,2.15
2022-09-17T16:05:47.094Z,2.00
2022-09-17T16:09:52.553Z,1.98
2022-09-17T16:11:54.266Z,2.17
2022-09-17T16:13:57.801Z,1.95
2022-09-17T16:15:59.382Z,1.98
2022-09-17T16:18:00.842Z,2.00
2022-09-17T16:20:28.618Z,1.90
2022-09-17T16:22:30.110Z,2.28
2022-09-17T16:24:31.936Z,1.90
2022-09-17T16:26:35.718Z,1.73
2022-09-17T16:28:37.260Z,1.75
2022-09-17T16:30:41.414Z,1.95
2022-09-17T16:32:43.023Z,2.50
2022-09-17T16:34:44.482Z,1.50
2022-09-17T16:36:45.976Z,1.77
2022-09-17T16:38:47.394Z,1.30
2022-09-17T16:40:48.880Z,1.23
2022-09-17T16:42:50.529Z,1.42
2022-09-17T16:44:51.937Z,1.00
2022-09-17T16:46:53.515Z,1.48
2022-09-17T16:48:54.995Z,1.17
2022-09-17T16:50:56.442Z,0.82
2022-09-17T16:53:01.498Z,1.33
2022-09-17T16:55:06.724Z,1.43
2022-09-17T16:57:08.153Z,1.13
2022-09-17T16:59:09.630Z,1.33
2022-09-17T17:01:14.122Z,1.70
2022-09-17T17:03:15.891Z,1.55
2022-09-17T17:05:17.333Z,1.40
2022-09-17T17:07:18.789Z,2.08
2022-09-17T17:09:20.220Z,1.58
2022-09-17T17:11:21.761Z,2.58
2022-09-17T17:13:23.235Z,2.17
2022-09-17T17:15:25.017Z,1.88
2022-09-17T17:17:26.524Z,2.55
2022-09-17T17:19:29.331Z,2.33
2022-09-17T17:21:30.772Z,2.35
2022-09-17T17:23:32.329Z,2.25
2022-09-17T17:25:34.579Z,2.28
2022-09-17T17:27:36.461Z,2.13
2022-09-17T17:29:38.025Z,3.15
2022-09-17T17:31:39.512Z,2.45
2022-09-17T17:33:41.068Z,2.42
2022-09-17T17:35:42.799Z,2.47
2022-09-17T17:37:44.319Z,3.10
2022-09-17T17:39:45.781Z,1.90
2022-09-17T17:41:51.522Z,2.83
2022-09-17T17:43:54.555Z,2.38
2022-09-17T17:45:55.974Z,2.75
2022-09-17T17:47:57.590Z,2.22
2022-09-17T17:49:59.154Z,1.70
2022-09-17T17:52:00.782Z,2.70
2022-09-17T17:54:02.280Z,2.50
2022-09-17T17:56:06.726Z,2.33
2022-09-17T17:58:08.150Z,1.80
2022-09-17T18:00:12.301Z,1.70
2022-09-17T18:02:13.853Z,2.45
2022-09-17T18:04:15.579Z,2.40
2022-09-17T18:06:17.055Z,2.90
2022-09-17T18:08:19.222Z,2.40
2022-09-17T18:10:20.922Z,2.20
2022-09-17T18:12:26.685Z,1.98
2022-09-17T18:14:28.510Z,2.15
2022-09-17T18:16:30.132Z,2.10
2022-09-17T18:18:42.153Z,2.63
2022-09-17T18:20:45.887Z,2.20
2022-09-17T18:22:47.380Z,3.08
2022-09-17T18:24:48.828Z,2.03
2022-09-17T18:26:50.244Z,2.33
2022-09-17T18:28:52.397Z,1.92
2022-09-17T18:30:54.593Z,2.25
2022-09-17T18:32:56.047Z,2.05
2022-09-17T18:34:57.499Z,2.17
2022-09-17T18:36:58.925Z,2.10
2022-09-17T18:39:56.481Z,2.13
2022-09-17T18:41:24.523Z,2.63
2022-09-17T18:43:25.976Z,3.25
2022-09-17T18:45:27.456Z,3.33
2022-09-17T18:47:28.902Z,2.80
2022-09-17T18:49:30.333Z,2.00
2022-09-17T18:51:32.137Z,2.13
2022-09-17T18:53:36.712Z,3.08
2022-09-17T18:55:38.144Z,2.53
2022-09-17T18:57:39.596Z,2.40
2022-09-17T18:59:41.061Z,2.50
2022-09-17T19:01:42.541Z,2.38
2022-09-17T19:03:44.247Z,2.08
2022-09-17T19:05:45.678Z,1.52
2022-09-17T19:07:47.636Z,2.63
2022-09-17T19:09:49.100Z,2.92
2022-09-17T19:11:50.553Z,2.20
2022-09-17T19:13:52.163Z,2.17
2022-09-17T19:15:59.475Z,2.20
2022-09-17T19:18:01.005Z,1.92
2022-09-17T19:20:04.053Z,2.67
2022-09-17T19:22:07.845Z,2.50
2022-09-17T19:24:09.709Z,2.58
2022-09-17T19:26:13.673Z,2.15
2022-09-17T19:28:15.164Z,2.08
2022-09-17T19:30:16.668Z,1.92
2022-09-17T19:32:18.084Z,1.95
2022-09-17T19:34:19.550Z,2.63
2022-09-17T19:36:21.571Z,2.35
2022-09-17T19:38:25.631Z,2.47
2022-09-17T19:40:28.652Z,2.20
2022-09-17T19:42:30.284Z,1.65
2022-09-17T19:44:31.803Z,1.67
2022-09-17T19:46:33.312Z,2.58
2022-09-17T19:48:38.093Z,2.47
2022-09-17T19:50:39.587Z,1.90
2022-09-17T19:52:41.242Z,2.55
2022-09-17T19:54:42.698Z,2.42
2022-09-17T19:56:44.161Z,2.38
2022-09-17T19:58:46.429Z,2.38
2022-09-17T20:00:47.896Z,2.22
2022-09-17T20:02:50.102Z,2.13
2022-09-17T20:04:51.580Z,2.03
2022-09-17T20:06:53.037Z,2.17
2022-09-17T20:08:54.753Z,2.20
2022-09-17T20:10:56.563Z,1.60
2022-09-17T20:12:58.731Z,2.25
2022-09-17T20:15:00.151Z,2.17
2022-09-17T20:17:01.627Z,1.92
2022-09-17T20:19:06.051Z,2.10
2022-09-17T20:21:09.365Z,1.92
2022-09-17T20:23:10.814Z,1.80
2022-09-17T20:25:12.291Z,2.22
2022-09-17T20:27:13.727Z,1.45
2022-09-17T20:29:15.327Z,1.67
2022-09-17T20:31:20.531Z,1.92
2022-09-17T20:33:24.150Z,1.90
2022-09-17T20:35:25.858Z,1.88
2022-09-17T20:38:08.327Z,2.30
2022-09-17T20:39:50.024Z,1.60
2022-09-17T20:41:51.501Z,1.50
2022-09-17T20:43:53.648Z,1.70
2022-09-17T20:45:55.658Z,1.55
2022-09-17T20:47:57.712Z,1.85
2022-09-17T20:49:59.137Z,2.00
2022-09-17T20:52:00.582Z,1.60
2022-09-17T20:54:02.407Z,1.00
2022-09-17T20:56:16.372Z,2.03
2022-09-17T20:58:20.058Z,1.10
2022-09-17T21:00:21.706Z,1.50
2022-09-17T21:02:23.274Z,1.75
2022-09-17T21:04:27.078Z,2.00
2022-09-17T21:06:31.372Z,2.22
2022-09-17T21:08:33.133Z,1.77
2022-09-17T21:10:34.686Z,1.77
2022-09-17T21:12:36.106Z,1.75
2022-09-17T21:14:38.168Z,2.63
2022-09-17T21:16:39.690Z,1.33
2022-09-17T21:18:42.044Z,1.60
2022-09-17T21:20:43.578Z,2.00
2022-09-17T21:22:45.074Z,1.60
2022-09-17T21:24:46.593Z,1.27
2022-09-17T21:26:49.718Z,1.75
2022-09-17T21:28:54.267Z,1.30
2022-09-17T21:31:02.698Z,1.48
2022-09-17T21:33:04.291Z,1.65
2022-09-17T21:35:06.043Z,1.95
2022-09-17T21:37:07.540Z,1.65
2022-09-17T21:39:14.891Z,1.95
2022-09-17T21:41:16.388Z,1.40
2022-09-17T21:43:17.880Z,1.52
2022-09-17T21:45:19.389Z,1.58
2022-09-17T21:47:20.805Z,1.40
2022-09-17T21:49:22.231Z,1.73
2022-09-17T21:51:30.447Z,1.85
2022-09-17T21:53:32.641Z,1.10
2022-09-17T21:55:34.166Z,1.70
2022-09-17T21:57:35.725Z,1.60
2022-09-17T21:59:37.156Z,1.42
2022-09-17T22:01:50.642Z,1.35
2022-09-17T22:03:53.864Z,1.60
2022-09-17T22:06:00.536Z,1.40
2022-09-17T22:08:02.208Z,1.20
2022-09-17T22:10:03.876Z,1.40
2022-09-17T22:12:06.473Z,2.08
2022-09-17T22:14:12.225Z,1.42
2022-09-17T22:16:13.883Z,1.40
2022-09-17T22:18:15.375Z,1.10
2022-09-17T22:20:16.928Z,1.50
2022-09-17T22:22:18.397Z,1.27
2022-09-17T22:24:21.576Z,1.02
2022-09-17T22:26:25.368Z,1.17
2022-09-17T22:28:27.366Z,1.50
2022-09-17T22:30:28.794Z,1.83
2022-09-17T22:32:30.233Z,1.40
2022-09-17T22:34:31.762Z,1.33
2022-09-17T22:36:33.198Z,1.20
2022-09-17T22:38:35.008Z,1.50
2022-09-17T22:40:37.055Z,1.85
2022-09-17T22:42:38.514Z,1.65
2022-09-17T22:44:41.019Z,1.50
2022-09-17T22:46:42.659Z,1.40
2022-09-17T22:48:44.201Z,1.95
2022-09-17T22:50:52.929Z,2.00
2022-09-17T22:52:54.385Z,1.75
2022-09-17T22:54:55.798Z,1.77
2022-09-17T22:56:57.320Z,1.48
2022-09-17T22:58:59.193Z,2.00
2022-09-17T23:01:13.368Z,1.48
2022-09-17T23:03:14.834Z,1.85
2022-09-17T23:05:16.412Z,1.35
2022-09-17T23:07:17.837Z,1.75
2022-09-17T23:09:19.248Z,1.52
2022-09-17T23:11:29.225Z,1.67
2022-09-17T23:13:31.089Z,1.40
2022-09-17T23:15:33.011Z,1.30
2022-09-17T23:17:35.592Z,2.15
2022-09-17T23:19:37.288Z,1.10
2022-09-17T23:21:39.024Z,1.88
2022-09-17T23:23:41.929Z,1.50
2022-09-17T23:25:43.338Z,1.73
2022-09-17T23:27:44.834Z,1.40
2022-09-17T23:29:46.360Z,1.73
2022-09-17T23:31:47.980Z,1.00
2022-09-17T23:33:50.466Z,1.33
2022-09-17T23:35:51.969Z,1.45
2022-09-17T23:37:53.429Z,1.20
2022-09-17T23:39:55.553Z,1.50
2022-09-17T23:41:57.047Z,1.00
2022-09-17T23:44:00.993Z,1.23
2022-09-17T23:46:02.557Z,1.20
2022-09-17T23:48:04.167Z,1.40
2022-09-17T23:50:06.290Z,1.33
2022-09-17T23:52:07.720Z,1.38
2022-09-17T23:54:09.888Z,1.05
2022-09-17T23:56:13.859Z,1.17
2022-09-17T23:58:16.395Z,1.20
